Time;durP1;ratioP1;P1;durP2;ratioP2;P2;SDS_P1;SDS_P2;PMS_P1;PMS_P2;Temp;Humidity;BMP_temperature;BMP_pressure;BME280_temperature;BME280_humidity;BME280_pressure;Samples;Min_cycle;Max_cycle;Signal;HPM_P1;HPM_P2
2022/08/25 00:00:02;;;;;;;12.75;7.32;;;;;;;;;;5010629;28;20305;-90
2022/08/25 00:02:28;;;;;;;11.18;6.75;;;;;;;;;;5022297;28;20076;-91
2022/08/25 00:04:54;;;;;;;12.00;7.50;;;;;;;;;;5023848;28;20037;-90
2022/08/25 00:07:20;;;;;;;12.18;6.63;;;;;;;;;;5019120;28;20030;-91
2022/08/25 00:09:47;;;;;;;13.93;7.07;;;;;;;;;;5021160;28;20030;-90
2022/08/25 00:12:13;;;;;;;14.68;7.28;;;;;;;;;;5009457;28;20064;-90
2022/08/25 00:14:39;;;;;;;16.17;7.43;;;;;;;;;;5013545;28;20064;-91
2022/08/25 00:17:06;;;;;;;11.52;6.75;;;;;;;;;;5025853;28;20017;-91
2022/08/25 00:19:33;;;;;;;9.48;6.80;;;;;;;;;;5019536;28;20026;-90
2022/08/25 00:22:00;;;;;;;14.77;7.60;;;;;;;;;;5027709;28;20048;-90
2022/08/25 00:24:26;;;;;;;12.40;6.88;;;;;;;;;;5053371;28;20029;-89
2022/08/25 00:26:54;;;;;;;17.42;6.95;;;;;;;;;;5021984;28;20151;-91
2022/08/25 00:29:20;;;;;;;15.88;6.80;;;;;;;;;;5024805;28;20033;-91
2022/08/25 00:31:47;;;;;;;19.05;6.85;;;;;;;;;;5027598;28;20021;-90
2022/08/25 00:34:14;;;;;;;13.65;6.20;;;;;;;;;;5024658;28;20091;-90
2022/08/25 00:36:41;;;;;;;12.70;6.30;;;;;;;;;;5028248;28;20107;-91
2022/08/25 00:39:08;;;;;;;13.18;5.93;;;;;;;;;;5026111;28;20473;-90
2022/08/25 00:41:34;;;;;;;14.82;6.78;;;;;;;;;;5024285;28;20037;-91
2022/08/25 00:44:03;;;;;;;14.45;6.32;;;;;;;;;;5023084;28;20033;-91
2022/08/25 00:46:35;;;;;;;11.20;6.00;;;;;;;;;;5022489;28;20069;-91
2022/08/25 00:49:06;;;;;;;11.13;6.20;;;;;;;;;;5021068;28;20497;-90
2022/08/25 00:51:38;;;;;;;8.52;6.03;;;;;;;;;;5021431;28;20041;-91
2022/08/25 00:54:05;;;;;;;14.25;6.13;;;;;;;;;;5020268;28;20559;-91
2022/08/25 00:56:33;;;;;;;7.47;5.53;;;;;;;;;;5022414;28;20029;-91
2022/08/25 00:58:59;;;;;;;10.00;4.97;;;;;;;;;;5010816;28;20056;-90
2022/08/25 01:01:26;;;;;;;15.75;5.75;;;;;;;;;;5024203;28;20032;-91
2022/08/25 01:03:52;;;;;;;7.93;4.55;;;;;;;;;;5020806;28;20057;-91
2022/08/25 01:06:18;;;;;;;12.30;5.22;;;;;;;;;;5011816;28;20053;-91
2022/08/25 01:08:44;;;;;;;8.60;5.22;;;;;;;;;;5021269;28;20049;-91
2022/08/25 01:11:11;;;;;;;9.23;4.80;;;;;;;;;;5031169;28;20117;-91
2022/08/25 01:13:44;;;;;;;28.00;5.78;;;;;;;;;;5005134;28;20493;-91
2022/08/25 01:16:10;;;;;;;9.23;4.75;;;;;;;;;;5026586;28;20029;-90
2022/08/25 01:19:05;;;;;;;14.50;5.03;;;;;;;;;;5016777;28;20040;-91
2022/08/25 01:21:37;;;;;;;11.50;4.45;;;;;;;;;;5002187;28;20444;-91
2022/08/25 01:24:03;;;;;;;11.18;5.55;;;;;;;;;;5023732;28;20586;-90
2022/08/25 01:26:31;;;;;;;14.45;5.15;;;;;;;;;;5010407;28;20037;-91
2022/08/25 01:31:43;;;;;;;17.67;4.80;;;;;;;;;;5043165;28;20060;-91
2022/08/25 01:34:11;;;;;;;8.65;4.70;;;;;;;;;;5003561;28;20035;-90
2022/08/25 01:36:37;;;;;;;8.05;5.03;;;;;;;;;;5018899;28;20519;-91
2022/08/25 01:39:04;;;;;;;13.85;4.80;;;;;;;;;;5038936;28;20703;-91
2022/08/25 01:41:30;;;;;;;10.77;4.53;;;;;;;;;;5020437;28;20116;-90
2022/08/25 01:43:56;;;;;;;9.38;4.45;;;;;;;;;;5021346;28;20033;-91
2022/08/25 01:46:29;;;;;;;8.75;4.70;;;;;;;;;;5008205;28;20079;-90
2022/08/25 01:48:55;;;;;;;10.68;4.55;;;;;;;;;;5005617;28;20028;-91
2022/08/25 01:51:23;;;;;;;9.35;4.63;;;;;;;;;;5018277;28;20048;-91
2022/08/25 01:53:50;;;;;;;11.05;4.95;;;;;;;;;;5018105;28;20481;-91
2022/08/25 01:56:16;;;;;;;6.88;4.55;;;;;;;;;;5018135;28;20033;-91
2022/08/25 01:58:44;;;;;;;7.50;4.40;;;;;;;;;;5018037;28;20118;-90
2022/08/25 02:01:14;;;;;;;7.80;4.70;;;;;;;;;;5012545;28;20028;-91
2022/08/25 02:03:42;;;;;;;6.88;4.93;;;;;;;;;;5012981;28;20033;-91
2022/08/25 02:06:09;;;;;;;8.75;4.68;;;;;;;;;;5017445;28;20591;-91
2022/08/25 02:08:35;;;;;;;9.57;4.53;;;;;;;;;;5000694;28;20047;-90
2022/08/25 02:11:02;;;;;;;8.50;4.70;;;;;;;;;;5005296;28;20034;-90
2022/08/25 02:13:28;;;;;;;13.05;4.43;;;;;;;;;;5018923;28;20076;-91
2022/08/25 02:15:56;;;;;;;11.00;4.65;;;;;;;;;;5020289;28;20567;-90
2022/08/25 02:18:22;;;;;;;11.77;4.55;;;;;;;;;;5017209;28;20033;-90
2022/08/25 02:20:48;;;;;;;7.28;4.63;;;;;;;;;;5012815;28;20103;-91
2022/08/25 02:23:14;;;;;;;6.47;4.60;;;;;;;;;;5009463;28;20036;-90
2022/08/25 02:25:41;;;;;;;7.15;5.07;;;;;;;;;;5024878;28;20028;-91
2022/08/25 02:28:08;;;;;;;10.05;4.93;;;;;;;;;;5023669;28;20062;-90
2022/08/25 02:30:35;;;;;;;6.07;4.57;;;;;;;;;;5019169;28;20577;-90
2022/08/25 02:33:01;;;;;;;11.48;4.72;;;;;;;;;;5007687;28;20060;-91
2022/08/25 02:35:28;;;;;;;7.90;4.88;;;;;;;;;;5017936;28;20034;-91
2022/08/25 02:37:54;;;;;;;10.82;5.05;;;;;;;;;;5012304;28;20120;-91
2022/08/25 02:40:20;;;;;;;9.15;4.20;;;;;;;;;;5008535;28;20522;-91
2022/08/25 02:42:50;;;;;;;9.05;4.78;;;;;;;;;;5011932;28;20045;-90
2022/08/25 02:45:17;;;;;;;15.40;5.03;;;;;;;;;;5007841;28;20167;-90
2022/08/25 02:47:43;;;;;;;9.27;4.72;;;;;;;;;;5025318;28;20523;-91
2022/08/25 02:50:10;;;;;;;9.15;5.00;;;;;;;;;;5004938;28;20037;-91
2022/08/25 02:52:36;;;;;;;11.65;5.40;;;;;;;;;;5020119;28;20035;-91
2022/08/25 02:55:04;;;;;;;13.98;5.25;;;;;;;;;;5012816;28;20517;-91
2022/08/25 02:57:30;;;;;;;10.45;5.95;;;;;;;;;;5018390;28;20021;-91
2022/08/25 02:59:57;;;;;;;12.77;5.47;;;;;;;;;;5020421;28;20056;-91
2022/08/25 03:02:23;;;;;;;14.23;6.57;;;;;;;;;;5019618;28;20128;-90
2022/08/25 03:04:50;;;;;;;8.95;5.75;;;;;;;;;;5013498;28;20033;-90
2022/08/25 03:07:17;;;;;;;8.50;4.85;;;;;;;;;;5011827;28;20113;-90
2022/08/25 03:09:43;;;;;;;12.25;4.93;;;;;;;;;;5022772;28;20078;-91
2022/08/25 03:12:10;;;;;;;9.30;5.20;;;;;;;;;;5015719;28;20037;-91
2022/08/25 03:14:36;;;;;;;14.00;5.03;;;;;;;;;;5004556;28;20572;-90
2022/08/25 03:17:03;;;;;;;8.60;5.63;;;;;;;;;;5032669;28;20109;-91
2022/08/25 03:19:29;;;;;;;10.38;4.68;;;;;;;;;;4999952;28;20061;-91
2022/08/25 03:21:56;;;;;;;14.98;5.07;;;;;;;;;;5017811;28;20029;-90
2022/08/25 03:24:22;;;;;;;8.35;5.15;;;;;;;;;;5005126;28;20063;-90
2022/08/25 03:26:57;;;;;;;6.97;4.35;;;;;;;;;;4998014;28;20599;-91
2022/08/25 03:29:25;;;;;;;8.45;5.18;;;;;;;;;;5011019;28;20036;-91
2022/08/25 03:31:53;;;;;;;8.02;5.22;;;;;;;;;;5023094;28;20022;-90
2022/08/25 03:34:20;;;;;;;10.35;4.80;;;;;;;;;;5020783;28;20047;-90
2022/08/25 03:36:47;;;;;;;7.22;4.75;;;;;;;;;;5020572;28;20086;-92
2022/08/25 03:39:14;;;;;;;17.05;5.32;;;;;;;;;;5034295;28;20068;-90
2022/08/25 03:41:40;;;;;;;8.40;4.65;;;;;;;;;;5016764;28;20033;-91
2022/08/25 03:44:07;;;;;;;8.23;4.53;;;;;;;;;;5011009;28;20381;-91
2022/08/25 03:46:36;;;;;;;6.72;4.95;;;;;;;;;;5036446;28;20536;-91
2022/08/25 03:49:03;;;;;;;12.13;4.60;;;;;;;;;;5019704;28;20063;-91
2022/08/25 03:51:48;;;;;;;9.77;5.40;;;;;;;;;;5013698;28;20329;-91
2022/08/25 03:54:16;;;;;;;13.05;5.32;;;;;;;;;;5024990;28;20393;-90
2022/08/25 03:56:42;;;;;;;12.63;5.07;;;;;;;;;;5017500;28;20036;-91
2022/08/25 03:59:08;;;;;;;12.68;5.13;;;;;;;;;;5012446;28;20037;-90
2022/08/25 04:01:39;;;;;;;8.48;5.60;;;;;;;;;;5019452;28;20396;-91
2022/08/25 04:04:06;;;;;;;12.57;4.90;;;;;;;;;;5026466;28;20038;-91
2022/08/25 04:06:32;;;;;;;19.75;4.50;;;;;;;;;;5023870;28;20021;-91
2022/08/25 04:08:58;;;;;;;10.63;4.80;;;;;;;;;;5006379;28;20028;-91
2022/08/25 04:11:25;;;;;;;11.02;4.90;;;;;;;;;;5018969;28;20622;-91
2022/08/25 04:13:52;;;;;;;13.05;5.15;;;;;;;;;;5021290;28;20503;-91
2022/08/25 04:16:20;;;;;;;11.52;5.45;;;;;;;;;;5019253;28;20040;-91
2022/08/25 04:18:46;;;;;;;9.00;5.43;;;;;;;;;;5021208;28;20060;-91
2022/08/25 04:21:13;;;;;;;15.68;5.50;;;;;;;;;;5006585;28;20128;-91
2022/08/25 04:23:40;;;;;;;8.68;5.05;;;;;;;;;;5011071;28;20126;-91
2022/08/25 04:26:14;;;;;;;19.25;5.75;;;;;;;;;;5020725;28;20036;-90
2022/08/25 04:28:40;;;;;;;7.82;5.20;;;;;;;;;;5021395;28;20611;-90
2022/08/25 04:31:10;;;;;;;7.60;5.43;;;;;;;;;;5019388;28;20468;-91
2022/08/25 04:33:37;;;;;;;13.25;5.85;;;;;;;;;;5025956;28;20568;-91
2022/08/25 04:36:03;;;;;;;10.13;4.95;;;;;;;;;;5009488;28;20037;-90
2022/08/25 04:38:31;;;;;;;9.85;5.60;;;;;;;;;;5019711;28;20504;-91
2022/08/25 04:41:01;;;;;;;22.90;5.95;;;;;;;;;;5021413;28;20133;-91
2022/08/25 04:43:27;;;;;;;8.23;5.65;;;;;;;;;;5022664;28;20517;-90
2022/08/25 04:45:54;;;;;;;9.38;5.40;;;;;;;;;;5009397;28;20040;-90
2022/08/25 04:48:20;;;;;;;11.07;5.30;;;;;;;;;;5022180;28;20052;-91
2022/08/25 04:50:47;;;;;;;12.52;5.72;;;;;;;;;;5019217;28;20099;-91
2022/08/25 04:53:13;;;;;;;7.35;5.30;;;;;;;;;;5022263;28;20037;-90
2022/08/25 04:55:44;;;;;;;9.23;6.10;;;;;;;;;;5020030;28;20041;-91
2022/08/25 04:58:10;;;;;;;9.98;5.68;;;;;;;;;;5010890;28;20126;-91
2022/08/25 05:00:36;;;;;;;13.13;6.43;;;;;;;;;;5010890;28;21040;-91
2022/08/25 05:03:03;;;;;;;9.82;5.68;;;;;;;;;;5018355;28;20037;-91
2022/08/25 05:05:29;;;;;;;11.82;6.50;;;;;;;;;;5022762;28;20021;-91
2022/08/25 05:07:56;;;;;;;12.70;5.82;;;;;;;;;;5018475;28;20070;-91
2022/08/25 05:10:22;;;;;;;11.30;5.65;;;;;;;;;;5025507;28;20052;-91
2022/08/25 05:12:48;;;;;;;9.55;5.88;;;;;;;;;;5013432;28;20030;-91
2022/08/25 05:17:58;;;;;;;13.52;5.82;;;;;;;;;;5021551;28;20051;-90
2022/08/25 05:20:24;;;;;;;10.98;6.35;;;;;;;;;;5022872;28;20041;-91
2022/08/25 05:22:51;;;;;;;11.85;5.55;;;;;;;;;;5020498;28;20029;-91
2022/08/25 05:25:17;;;;;;;12.20;6.65;;;;;;;;;;5016867;28;20036;-91
2022/08/25 05:27:43;;;;;;;9.93;6.20;;;;;;;;;;5006550;28;20094;-91
2022/08/25 05:30:10;;;;;;;22.17;6.35;;;;;;;;;;5021085;28;20033;-90
2022/08/25 05:32:37;;;;;;;10.70;5.97;;;;;;;;;;5019397;28;20022;-91
2022/08/25 05:35:03;;;;;;;10.02;6.55;;;;;;;;;;5011302;28;20091;-91
2022/08/25 05:37:29;;;;;;;18.17;6.18;;;;;;;;;;5019271;28;20029;-90
2022/08/25 05:39:55;;;;;;;12.63;5.80;;;;;;;;;;5026413;28;20026;-90
2022/08/25 05:42:22;;;;;;;12.30;6.38;;;;;;;;;;5013686;28;20033;-91
2022/08/25 05:44:48;;;;;;;10.35;5.80;;;;;;;;;;5011663;28;20029;-91
2022/08/25 05:47:14;;;;;;;10.13;6.38;;;;;;;;;;5002551;28;20403;-91
2022/08/25 05:49:40;;;;;;;10.02;6.03;;;;;;;;;;5011936;28;20025;-90
2022/08/25 05:52:06;;;;;;;10.68;5.97;;;;;;;;;;5021184;28;20029;-91
2022/08/25 05:54:32;;;;;;;14.93;6.25;;;;;;;;;;5020321;28;20035;-90
2022/08/25 05:56:59;;;;;;;17.45;6.55;;;;;;;;;;5017914;28;20086;-90
2022/08/25 05:59:26;;;;;;;10.95;6.25;;;;;;;;;;5016020;28;20481;-91
2022/08/25 06:02:52;;;;;;;10.32;6.43;;;;;;;;;;5022304;28;20072;-91
2022/08/25 06:04:47;;;;;;;12.52;6.15;;;;;;;;;;5016206;28;20037;-91
2022/08/25 06:07:13;;;;;;;15.63;6.50;;;;;;;;;;5020518;28;20037;-91
2022/08/25 06:09:40;;;;;;;14.73;7.72;;;;;;;;;;5016474;28;20043;-91
2022/08/25 06:12:06;;;;;;;20.65;7.28;;;;;;;;;;5016170;28;20034;-90
2022/08/25 06:14:32;;;;;;;9.88;5.45;;;;;;;;;;5011211;28;20053;-91
2022/08/25 06:16:59;;;;;;;14.98;6.30;;;;;;;;;;5013456;28;20041;-90
2022/08/25 06:19:26;;;;;;;16.90;5.95;;;;;;;;;;5015919;28;20083;-91
2022/08/25 06:21:55;;;;;;;14.10;6.15;;;;;;;;;;5012629;28;20032;-91
2022/08/25 06:24:22;;;;;;;16.60;6.70;;;;;;;;;;5022782;28;21535;-91
2022/08/25 06:26:48;;;;;;;12.77;5.90;;;;;;;;;;5010562;28;20041;-90
2022/08/25 06:29:14;;;;;;;12.32;6.47;;;;;;;;;;5009476;28;20059;-90
2022/08/25 06:31:41;;;;;;;10.48;5.57;;;;;;;;;;5009433;28;20062;-90
2022/08/25 06:34:07;;;;;;;13.20;5.88;;;;;;;;;;5007046;28;20045;-91
2022/08/25 06:36:33;;;;;;;16.58;6.20;;;;;;;;;;5023849;28;20078;-90
2022/08/25 06:38:59;;;;;;;12.90;6.20;;;;;;;;;;5015629;28;20033;-90
2022/08/25 06:41:26;;;;;;;15.45;7.43;;;;;;;;;;5016075;28;20034;-91
2022/08/25 06:43:52;;;;;;;15.43;6.28;;;;;;;;;;5015652;28;20565;-92
2022/08/25 06:46:20;;;;;;;13.05;6.63;;;;;;;;;;5011051;28;20029;-92
2022/08/25 06:48:46;;;;;;;7.57;5.70;;;;;;;;;;5009585;28;20037;-91
2022/08/25 06:51:14;;;;;;;11.38;6.00;;;;;;;;;;5020157;28;20453;-91
2022/08/25 06:53:41;;;;;;;10.40;5.90;;;;;;;;;;5016032;28;20033;-91
2022/08/25 06:56:08;;;;;;;13.48;5.82;;;;;;;;;;5019374;28;20199;-90
2022/08/25 06:58:41;;;;;;;11.43;5.75;;;;;;;;;;5017772;28;21773;-91
2022/08/25 07:01:07;;;;;;;15.82;6.30;;;;;;;;;;5020348;28;20134;-91
2022/08/25 07:03:33;;;;;;;17.63;5.95;;;;;;;;;;5021233;28;20037;-91
2022/08/25 07:05:59;;;;;;;10.63;5.68;;;;;;;;;;5021310;28;20037;-92
2022/08/25 07:08:25;;;;;;;12.77;6.85;;;;;;;;;;5015678;28;20060;-91
2022/08/25 07:10:51;;;;;;;17.70;6.30;;;;;;;;;;5010146;28;20108;-91
2022/08/25 07:13:17;;;;;;;12.90;6.03;;;;;;;;;;5009395;28;20131;-91
2022/08/25 07:15:44;;;;;;;10.40;5.60;;;;;;;;;;5008207;28;20043;-91
2022/08/25 07:18:10;;;;;;;9.52;5.72;;;;;;;;;;5028456;28;20112;-91
2022/08/25 07:20:37;;;;;;;10.20;5.10;;;;;;;;;;5014667;28;20061;-91
2022/08/25 07:23:03;;;;;;;16.05;5.82;;;;;;;;;;5008096;28;20709;-91
2022/08/25 07:25:30;;;;;;;12.20;6.07;;;;;;;;;;5024477;28;20037;-91
2022/08/25 07:27:56;;;;;;;10.82;5.85;;;;;;;;;;5021054;28;20049;-91
2022/08/25 07:30:22;;;;;;;19.35;5.70;;;;;;;;;;5022797;28;20381;-91
2022/08/25 07:32:48;;;;;;;10.82;5.93;;;;;;;;;;5021796;28;20029;-91
2022/08/25 07:35:14;;;;;;;10.25;5.72;;;;;;;;;;5013886;28;20036;-91
2022/08/25 07:37:45;;;;;;;7.68;4.80;;;;;;;;;;5009750;28;20041;-91
2022/08/25 07:40:12;;;;;;;9.35;5.57;;;;;;;;;;5021998;28;20457;-91
2022/08/25 07:42:38;;;;;;;13.00;5.80;;;;;;;;;;5018617;28;20406;-91
2022/08/25 07:45:05;;;;;;;12.63;7.13;;;;;;;;;;5011357;28;20044;-91
2022/08/25 07:47:32;;;;;;;7.22;5.10;;;;;;;;;;5026000;28;20076;-91
2022/08/25 07:49:58;;;;;;;16.58;5.72;;;;;;;;;;5018104;28;20025;-91
2022/08/25 07:52:24;;;;;;;11.90;5.32;;;;;;;;;;5024548;28;20040;-91
2022/08/25 07:54:52;;;;;;;9.43;5.43;;;;;;;;;;5006914;28;20152;-91
2022/08/25 07:57:20;;;;;;;9.38;5.40;;;;;;;;;;5008073;28;20102;-91
2022/08/25 07:59:47;;;;;;;15.95;5.80;;;;;;;;;;5014522;28;20383;-91
2022/08/25 08:02:13;;;;;;;12.82;6.07;;;;;;;;;;5019122;28;20315;-91
2022/08/25 08:04:41;;;;;;;13.55;5.50;;;;;;;;;;5022346;28;20022;-91
2022/08/25 08:07:07;;;;;;;11.77;4.90;;;;;;;;;;5008045;28;20477;-90
2022/08/25 08:09:33;;;;;;;8.30;4.55;;;;;;;;;;5019007;28;20025;-91
2022/08/25 08:11:59;;;;;;;13.60;5.07;;;;;;;;;;5005020;28;20047;-91
2022/08/25 08:14:25;;;;;;;9.80;5.22;;;;;;;;;;5014694;28;20041;-91
2022/08/25 08:16:52;;;;;;;10.23;4.45;;;;;;;;;;5010655;28;20047;-91
2022/08/25 08:19:19;;;;;;;9.00;5.47;;;;;;;;;;5039956;28;20473;-91
2022/08/25 08:21:45;;;;;;;8.98;4.57;;;;;;;;;;5013523;28;20036;-90
2022/08/25 08:24:11;;;;;;;5.50;4.15;;;;;;;;;;5011787;28;20546;-91
2022/08/25 08:26:37;;;;;;;12.13;5.07;;;;;;;;;;5019128;28;20406;-91
2022/08/25 08:29:03;;;;;;;10.55;5.15;;;;;;;;;;5011386;28;20100;-91
2022/08/25 08:31:29;;;;;;;17.13;5.20;;;;;;;;;;5016128;28;20045;-91
2022/08/25 08:33:56;;;;;;;10.60;4.30;;;;;;;;;;5020265;28;20147;-91
2022/08/25 08:36:23;;;;;;;12.50;4.80;;;;;;;;;;5021785;28;20025;-91
2022/08/25 08:38:49;;;;;;;9.02;5.10;;;;;;;;;;5016915;28;20428;-91
2022/08/25 08:44:32;;;;;;;10.32;4.85;;;;;;;;;;5041684;28;20040;-91
2022/08/25 08:46:58;;;;;;;9.52;4.47;;;;;;;;;;5025995;28;20064;-91
2022/08/25 08:49:53;;;;;;;7.57;4.40;;;;;;;;;;5025068;28;20109;-91
2022/08/25 08:52:22;;;;;;;7.47;4.17;;;;;;;;;;5004742;28;20258;-91
2022/08/25 08:54:52;;;;;;;8.20;4.63;;;;;;;;;;5024725;28;20029;-91
2022/08/25 08:57:22;;;;;;;7.85;4.03;;;;;;;;;;5029361;28;20515;-92
2022/08/25 08:59:54;;;;;;;9.73;4.35;;;;;;;;;;5030270;28;20505;-91
2022/08/25 09:02:29;;;;;;;9.85;4.32;;;;;;;;;;5021367;28;20258;-91
2022/08/25 09:04:59;;;;;;;7.93;4.55;;;;;;;;;;5023519;28;20109;-92
2022/08/25 09:07:30;;;;;;;10.55;4.70;;;;;;;;;;5029552;28;20012;-91
2022/08/25 09:09:56;;;;;;;8.07;4.47;;;;;;;;;;5026450;28;20033;-91
2022/08/25 09:12:41;;;;;;;8.13;4.57;;;;;;;;;;5017234;28;20060;-91
2022/08/25 09:16:53;;;;;;;10.37;4.43;;;;;;;;;;5048286;28;20499;-91
2022/08/25 09:18:39;;;;;;;9.25;5.03;;;;;;;;;;5043560;28;20033;-92
2022/08/25 09:21:22;;;;;;;5.82;4.10;;;;;;;;;;5031889;28;20025;-92
2022/08/25 09:23:58;;;;;;;11.55;4.30;;;;;;;;;;5042656;28;20028;-92
2022/08/25 09:26:29;;;;;;;7.70;4.32;;;;;;;;;;5032572;28;20025;-91
2022/08/25 09:29:01;;;;;;;8.63;4.10;;;;;;;;;;5021233;28;20103;-92
2022/08/25 09:31:30;;;;;;;9.27;3.83;;;;;;;;;;5035089;28;20029;-91
2022/08/25 09:33:57;;;;;;;13.48;4.40;;;;;;;;;;5022745;28;20025;-91
2022/08/25 09:36:23;;;;;;;6.88;3.90;;;;;;;;;;5012928;28;20025;-91
2022/08/25 09:38:49;;;;;;;11.50;4.10;;;;;;;;;;5014175;28;20035;-91
2022/08/25 09:41:16;;;;;;;10.27;4.18;;;;;;;;;;5023410;28;20094;-91
2022/08/25 09:43:44;;;;;;;12.75;3.85;;;;;;;;;;5020168;28;20081;-91
2022/08/25 09:46:22;;;;;;;9.65;3.72;;;;;;;;;;5033178;28;20029;-91
2022/08/25 09:48:56;;;;;;;4.65;3.65;;;;;;;;;;5028379;28;20060;-92
2022/08/25 09:51:29;;;;;;;7.30;3.45;;;;;;;;;;5030989;28;20029;-92
2022/08/25 09:54:14;;;;;;;6.47;3.40;;;;;;;;;;5030921;28;20025;-91
2022/08/25 09:56:54;;;;;;;14.33;3.83;;;;;;;;;;5028969;28;20029;-92
2022/08/25 09:59:23;;;;;;;7.80;3.78;;;;;;;;;;5029613;28;20555;-92
2022/08/25 10:01:53;;;;;;;5.00;3.25;;;;;;;;;;5031310;28;20574;-91
2022/08/25 10:04:26;;;;;;;11.48;4.30;;;;;;;;;;5026504;28;20061;-92
2022/08/25 10:06:53;;;;;;;8.90;3.47;;;;;;;;;;5019074;28;20037;-92
2022/08/25 10:09:33;;;;;;;9.07;3.05;;;;;;;;;;5034108;28;20050;-91
2022/08/25 10:12:01;;;;;;;5.50;3.70;;;;;;;;;;5031709;28;20071;-91
2022/08/25 10:14:31;;;;;;;18.00;3.80;;;;;;;;;;5025220;28;20020;-92
2022/08/25 10:17:16;;;;;;;7.90;3.20;;;;;;;;;;5042561;28;20401;-91
2022/08/25 10:19:43;;;;;;;8.45;3.58;;;;;;;;;;5030134;28;20048;-91
2022/08/25 10:22:11;;;;;;;6.57;3.10;;;;;;;;;;5039052;28;20029;-92
2022/08/25 10:24:38;;;;;;;14.73;4.40;;;;;;;;;;5033473;28;20322;-91
2022/08/25 10:27:04;;;;;;;6.43;3.20;;;;;;;;;;5018419;28;20530;-92
2022/08/25 10:29:49;;;;;;;3.20;2.72;;;;;;;;;;5026992;28;20342;-92
2022/08/25 10:32:18;;;;;;;5.60;4.22;;;;;;;;;;5024700;28;20443;-91
2022/08/25 10:34:49;;;;;;;5.35;3.63;;;;;;;;;;5028064;28;20025;-91
2022/08/25 10:37:23;;;;;;;10.30;3.50;;;;;;;;;;5028766;28;20021;-91
2022/08/25 10:39:52;;;;;;;17.10;3.40;;;;;;;;;;5024880;28;20021;-92
2022/08/25 10:42:28;;;;;;;5.10;3.90;;;;;;;;;;5028556;28;20075;-91
2022/08/25 10:46:01;;;;;;;3.30;3.00;;;;;;;;;;5023523;28;20476;-92
2022/08/25 10:48:22;;;;;;;15.00;3.90;;;;;;;;;;5024351;28;20386;-92
2022/08/25 10:51:08;;;;;;;12.13;3.03;;;;;;;;;;5022348;28;20396;-91
2022/08/25 10:53:49;;;;;;;11.90;3.55;;;;;;;;;;4979343;28;20170;-91
2022/08/25 10:56:23;;;;;;;6.25;3.70;;;;;;;;;;5033735;28;20492;-92
2022/08/25 10:58:49;;;;;;;4.57;3.90;;;;;;;;;;5020506;28;20039;-92
2022/08/25 11:01:35;;;;;;;5.38;3.53;;;;;;;;;;5025525;28;20419;-92
2022/08/25 11:04:06;;;;;;;12.73;3.65;;;;;;;;;;5017681;28;20128;-91
2022/08/25 11:06:37;;;;;;;4.28;3.10;;;;;;;;;;5023258;28;20334;-91
2022/08/25 11:09:05;;;;;;;7.07;3.83;;;;;;;;;;5017191;28;20029;-91
2022/08/25 11:11:33;;;;;;;6.10;3.60;;;;;;;;;;5020348;28;20026;-92
2022/08/25 11:14:06;;;;;;;6.60;3.20;;;;;;;;;;5014862;28;20040;-92
2022/08/25 11:16:44;;;;;;;8.15;3.22;;;;;;;;;;5021009;28;20032;-92
2022/08/25 11:19:19;;;;;;;8.77;3.50;;;;;;;;;;5014264;28;20425;-92
2022/08/25 11:21:58;;;;;;;4.45;3.25;;;;;;;;;;5019115;28;20031;-92
2022/08/25 11:24:34;;;;;;;9.57;3.28;;;;;;;;;;5015783;28;20767;-92
2022/08/25 11:27:03;;;;;;;11.45;4.18;;;;;;;;;;5014776;28;20026;-92
2022/08/25 11:29:32;;;;;;;4.60;3.20;;;;;;;;;;5021988;28;20029;-91
2022/08/25 11:31:59;;;;;;;9.07;3.33;;;;;;;;;;5020640;28;20030;-92
2022/08/25 11:34:27;;;;;;;9.95;4.07;;;;;;;;;;5016462;28;20048;-91
2022/08/25 11:36:59;;;;;;;6.07;3.65;;;;;;;;;;5014739;28;20064;-92
2022/08/25 11:39:56;;;;;;;8.90;3.60;;;;;;;;;;5020960;28;20029;-92
2022/08/25 11:42:31;;;;;;;6.97;3.80;;;;;;;;;;5024909;28;20022;-91
2022/08/25 11:45:17;;;;;;;5.13;3.70;;;;;;;;;;5019670;28;20088;-92
2022/08/25 11:47:46;;;;;;;5.47;3.70;;;;;;;;;;4993446;28;20108;-91
2022/08/25 11:50:33;;;;;;;4.97;3.95;;;;;;;;;;5017260;28;20017;-92
2022/08/25 11:53:02;;;;;;;7.47;3.53;;;;;;;;;;5027364;28;20477;-92
2022/08/25 11:55:34;;;;;;;9.40;3.47;;;;;;;;;;5024308;28;20500;-92
2022/08/25 11:58:16;;;;;;;6.15;3.80;;;;;;;;;;5037514;28;20436;-92
2022/08/25 12:00:43;;;;;;;4.45;3.25;;;;;;;;;;5018585;28;20060;-91
2022/08/25 12:03:27;;;;;;;5.13;3.60;;;;;;;;;;5025104;28;20032;-92
2022/08/25 12:06:14;;;;;;;7.88;3.45;;;;;;;;;;5027931;28;20102;-91
2022/08/25 12:08:48;;;;;;;8.68;3.50;;;;;;;;;;4999133;28;20123;-92
2022/08/25 12:11:34;;;;;;;5.68;3.30;;;;;;;;;;5005147;28;20029;-92
2022/08/25 12:14:09;;;;;;;4.97;2.92;;;;;;;;;;5019567;28;20476;-91
2022/08/25 12:16:35;;;;;;;10.63;2.90;;;;;;;;;;5020980;28;20034;-92
2022/08/25 12:19:20;;;;;;;5.65;2.75;;;;;;;;;;5017027;28;20029;-92
2022/08/25 12:21:46;;;;;;;9.00;3.90;;;;;;;;;;5016940;28;20025;-92
2022/08/25 12:24:13;;;;;;;5.85;3.33;;;;;;;;;;5005810;28;20038;-92
2022/08/25 12:26:42;;;;;;;3.65;3.08;;;;;;;;;;5016545;28;20081;-92
2022/08/25 12:29:18;;;;;;;5.65;3.13;;;;;;;;;;5015431;28;20175;-92
2022/08/25 12:31:46;;;;;;;11.15;2.95;;;;;;;;;;5025000;28;20021;-92
2022/08/25 12:34:29;;;;;;;8.60;3.20;;;;;;;;;;5022833;28;20095;-92
2022/08/25 12:36:57;;;;;;;6.05;3.38;;;;;;;;;;5024021;28;20037;-92
2022/08/25 12:39:28;;;;;;;3.88;2.88;;;;;;;;;;5020457;28;20384;-91
2022/08/25 12:41:57;;;;;;;4.80;3.05;;;;;;;;;;5019888;28;20042;-93
2022/08/25 12:44:43;;;;;;;12.45;3.60;;;;;;;;;;5025685;28;20021;-92
2022/08/25 12:47:30;;;;;;;3.92;2.92;;;;;;;;;;5027137;28;20048;-92
2022/08/25 12:50:19;;;;;;;12.48;3.45;;;;;;;;;;5018368;28;20469;-92
2022/08/25 12:52:46;;;;;;;3.67;2.50;;;;;;;;;;5015025;28;20477;-91
2022/08/25 12:55:12;;;;;;;4.57;2.65;;;;;;;;;;5024081;28;20029;-91
2022/08/25 12:57:41;;;;;;;5.13;3.13;;;;;;;;;;5023363;28;20374;-92
2022/08/25 13:00:30;;;;;;;6.40;3.25;;;;;;;;;;5020828;28;20035;-91
2022/08/25 13:03:02;;;;;;;5.78;3.38;;;;;;;;;;4994359;28;20033;-91
2022/08/25 13:05:48;;;;;;;3.42;3.10;;;;;;;;;;5026204;28;20021;-92
2022/08/25 13:08:20;;;;;;;3.60;2.80;;;;;;;;;;5015493;28;20060;-91
2022/08/25 13:10:53;;;;;;;4.47;3.40;;;;;;;;;;5024847;28;20040;-91
2022/08/25 13:13:30;;;;;;;8.15;3.22;;;;;;;;;;5020966;28;20384;-91
2022/08/25 13:15:58;;;;;;;7.07;3.38;;;;;;;;;;5016700;28;20029;-91
2022/08/25 13:18:28;;;;;;;7.53;3.10;;;;;;;;;;5013331;28;20037;-91
2022/08/25 13:21:15;;;;;;;6.70;3.22;;;;;;;;;;5021849;28;20033;-92
2022/08/25 13:23:42;;;;;;;6.05;3.22;;;;;;;;;;5028504;28;20115;-92
2022/08/25 13:26:12;;;;;;;4.68;3.20;;;;;;;;;;5024663;28;20389;-92
2022/08/25 13:28:39;;;;;;;6.57;4.10;;;;;;;;;;5016539;28;20497;-91
2022/08/25 13:31:08;;;;;;;8.02;3.20;;;;;;;;;;5021398;28;20029;-92
2022/08/25 13:33:38;;;;;;;6.60;2.80;;;;;;;;;;5017733;28;20439;-91
2022/08/25 13:38:49;;;;;;;5.95;2.88;;;;;;;;;;5025288;28;20730;-92
2022/08/25 13:41:22;;;;;;;6.32;2.80;;;;;;;;;;5012909;28;21784;-91
2022/08/25 13:43:48;;;;;;;4.78;3.05;;;;;;;;;;5023337;28;20335;-92
2022/08/25 13:46:17;;;;;;;5.75;2.70;;;;;;;;;;5013855;28;20083;-91
2022/08/25 13:48:43;;;;;;;3.40;3.10;;;;;;;;;;5017819;28;20404;-92
2022/08/25 13:51:17;;;;;;;5.47;3.05;;;;;;;;;;5006345;28;20025;-91
2022/08/25 13:53:48;;;;;;;7.53;3.33;;;;;;;;;;5017183;28;20036;-92
2022/08/25 13:56:22;;;;;;;5.60;2.97;;;;;;;;;;5017005;28;20115;-92
2022/08/25 13:58:48;;;;;;;6.73;3.77;;;;;;;;;;5024725;28;20031;-92
2022/08/25 14:01:23;;;;;;;3.22;2.80;;;;;;;;;;5008440;28;20288;-92
2022/08/25 14:03:49;;;;;;;5.22;2.83;;;;;;;;;;5019122;28;20519;-91
2022/08/25 14:06:15;;;;;;;3.63;3.00;;;;;;;;;;5023529;28;20110;-92
2022/08/25 14:08:46;;;;;;;5.18;2.92;;;;;;;;;;5012668;28;20060;-91
2022/08/25 14:11:29;;;;;;;5.68;2.60;;;;;;;;;;5021429;28;20031;-91
2022/08/25 14:14:02;;;;;;;9.10;3.38;;;;;;;;;;5039195;28;20392;-91
2022/08/25 14:16:28;;;;;;;3.45;3.15;;;;;;;;;;4997865;28;20029;-91
2022/08/25 14:18:56;;;;;;;3.03;2.42;;;;;;;;;;5019319;28;20033;-91
2022/08/25 14:21:23;;;;;;;5.43;3.00;;;;;;;;;;5016677;28;20033;-91
2022/08/25 14:23:49;;;;;;;5.10;3.38;;;;;;;;;;5016544;28;20400;-92
2022/08/25 14:26:15;;;;;;;12.00;4.05;;;;;;;;;;5017172;28;20480;-91
2022/08/25 14:28:41;;;;;;;7.25;2.85;;;;;;;;;;5005729;28;20032;-92
2022/08/25 14:31:08;;;;;;;5.30;3.30;;;;;;;;;;5010538;28;20025;-91
2022/08/25 14:33:39;;;;;;;6.57;3.22;;;;;;;;;;5017372;28;20384;-91
2022/08/25 14:36:06;;;;;;;8.10;2.78;;;;;;;;;;5029743;28;20038;-91
2022/08/25 14:38:33;;;;;;;5.18;2.80;;;;;;;;;;5007684;28;20515;-92
2022/08/25 14:40:59;;;;;;;10.60;2.90;;;;;;;;;;5021157;28;20022;-92
2022/08/25 14:43:25;;;;;;;4.30;2.83;;;;;;;;;;5031562;28;20029;-91
2022/08/25 14:45:51;;;;;;;3.83;2.58;;;;;;;;;;5019860;28;20051;-91
2022/08/25 14:48:23;;;;;;;6.05;2.70;;;;;;;;;;5017934;28;20044;-91
2022/08/25 14:50:49;;;;;;;5.20;2.72;;;;;;;;;;5014203;28;20389;-92
2022/08/25 14:53:15;;;;;;;9.63;3.35;;;;;;;;;;5023922;28;20025;-91
2022/08/25 14:55:41;;;;;;;5.18;3.42;;;;;;;;;;5006811;28;20492;-91
2022/08/25 14:58:08;;;;;;;7.50;3.35;;;;;;;;;;5011924;28;20060;-91
2022/08/25 15:00:36;;;;;;;9.50;3.10;;;;;;;;;;5017135;28;20633;-91